createdAt,value
2023-03-12T00:01:46.442Z,10.33
2023-03-12T00:03:51.621Z,6.43
2023-03-12T00:05:56.066Z,6.73
2023-03-12T00:08:00.893Z,7.50
2023-03-12T00:10:04.587Z,7.07
2023-03-12T00:12:10.255Z,6.67
2023-03-12T00:14:13.591Z,8.30
2023-03-12T00:16:17.115Z,9.07
2023-03-12T00:18:20.639Z,10.50
2023-03-12T00:20:24.089Z,7.50
2023-03-12T00:22:27.442Z,7.17
2023-03-12T00:24:33.205Z,8.00
2023-03-12T00:26:36.653Z,8.93
2023-03-12T00:28:41.490Z,9.20
2023-03-12T00:30:45.145Z,6.13
2023-03-12T00:32:48.509Z,9.67
2023-03-12T00:34:55.466Z,9.70
2023-03-12T00:37:00.013Z,8.80
2023-03-12T00:42:19.462Z,7.47
2023-03-12T00:44:24.335Z,6.57
2023-03-12T00:46:28.039Z,7.33
2023-03-12T00:48:36.537Z,9.07
2023-03-12T00:50:40.417Z,7.33
2023-03-12T00:52:44.186Z,7.23
2023-03-12T00:54:47.897Z,9.50
2023-03-12T00:56:51.325Z,6.70
2023-03-12T00:58:54.954Z,8.73
2023-03-12T01:01:00.070Z,7.47
2023-03-12T01:03:04.165Z,7.57
2023-03-12T01:05:08.436Z,10.37
2023-03-12T01:07:11.919Z,4.93
2023-03-12T01:09:51.678Z,10.60
2023-03-12T01:11:55.066Z,8.57
2023-03-12T01:14:00.099Z,8.50
2023-03-12T01:16:05.129Z,10.07
2023-03-12T01:18:14.264Z,8.43
2023-03-12T01:20:18.796Z,9.00
2023-03-12T01:22:22.263Z,10.93
2023-03-12T01:24:25.852Z,9.90
2023-03-12T01:26:29.394Z,7.67
2023-03-12T01:28:32.760Z,7.63
2023-03-12T01:30:36.383Z,6.67
2023-03-12T01:32:41.477Z,9.10
2023-03-12T01:34:44.908Z,7.20
2023-03-12T01:36:48.781Z,6.90
2023-03-12T01:38:52.764Z,10.93
2023-03-12T01:40:56.402Z,8.03
2023-03-12T01:43:00.663Z,9.07
2023-03-12T01:45:05.296Z,9.10
2023-03-12T01:47:08.738Z,9.60
2023-03-12T01:49:15.668Z,7.43
2023-03-12T01:51:19.465Z,8.57
2023-03-12T01:53:23.036Z,8.33
2023-03-12T01:55:26.678Z,11.20
2023-03-12T01:57:36.736Z,7.70
2023-03-12T01:59:42.796Z,11.97
2023-03-12T02:01:52.064Z,9.13
2023-03-12T02:03:55.880Z,11.67
2023-03-12T02:06:03.702Z,7.40
2023-03-12T02:08:07.315Z,11.07
2023-03-12T02:10:11.981Z,8.40
2023-03-12T02:12:15.684Z,6.93
2023-03-12T02:15:14.561Z,8.97
2023-03-12T02:17:18.146Z,10.77
2023-03-12T02:19:28.828Z,8.67
2023-03-12T02:21:36.296Z,9.70
2023-03-12T02:23:42.868Z,9.77
2023-03-12T02:25:48.231Z,10.73
2023-03-12T02:27:51.872Z,8.87
2023-03-12T02:33:31.438Z,10.60
2023-03-12T02:35:34.913Z,12.27
2023-03-12T02:37:48.027Z,11.83
2023-03-12T02:39:55.218Z,12.37
2023-03-12T02:42:00.163Z,12.67
2023-03-12T02:44:09.961Z,10.83
2023-03-12T02:46:13.901Z,12.70
2023-03-12T02:48:17.680Z,12.00
2023-03-12T02:50:21.543Z,10.80
2023-03-12T02:52:25.069Z,10.27
2023-03-12T02:54:28.752Z,14.10
2023-03-12T02:56:32.558Z,11.07
2023-03-12T02:58:38.635Z,10.10
2023-03-12T03:00:42.526Z,11.30
2023-03-12T03:02:45.978Z,11.97
2023-03-12T03:04:50.458Z,11.40
2023-03-12T03:06:53.970Z,9.87
2023-03-12T03:08:57.823Z,9.40
2023-03-12T03:11:03.189Z,8.97
2023-03-12T03:13:06.712Z,9.50
2023-03-12T03:15:12.412Z,11.87
2023-03-12T03:17:16.279Z,10.97
2023-03-12T03:19:19.888Z,9.87
2023-03-12T03:21:23.631Z,8.57
2023-03-12T03:23:27.628Z,8.57
2023-03-12T03:25:31.201Z,9.67
2023-03-12T03:27:35.595Z,9.67
2023-03-12T03:29:39.390Z,8.77
2023-03-12T03:31:44.591Z,11.10
2023-03-12T03:33:48.061Z,10.60
2023-03-12T03:35:51.936Z,13.30
2023-03-12T03:37:56.515Z,11.53
2023-03-12T03:40:00.161Z,9.50
2023-03-12T03:42:03.531Z,11.47
2023-03-12T03:44:08.725Z,9.43
2023-03-12T03:46:12.475Z,11.20
2023-03-12T03:48:17.890Z,8.47
2023-03-12T03:50:21.637Z,10.80
2023-03-12T03:52:25.248Z,11.63
2023-03-12T03:54:29.731Z,13.00
2023-03-12T03:59:50.158Z,9.10
2023-03-12T04:01:53.726Z,8.80
2023-03-12T04:03:59.100Z,9.23
2023-03-12T04:06:03.407Z,10.50
2023-03-12T04:08:07.372Z,9.77
2023-03-12T04:10:12.144Z,8.80
2023-03-12T04:12:16.034Z,10.20
2023-03-12T04:14:19.831Z,11.60
2023-03-12T04:16:23.422Z,14.13
2023-03-12T04:18:30.251Z,9.23
2023-03-12T04:20:35.363Z,10.70
2023-03-12T04:22:38.755Z,10.17
2023-03-12T04:24:42.722Z,11.77
2023-03-12T04:26:46.094Z,10.03
2023-03-12T04:28:50.931Z,9.03
2023-03-12T04:30:59.708Z,10.37
2023-03-12T04:33:03.619Z,12.50
2023-03-12T04:35:07.727Z,9.00
2023-03-12T04:37:15.803Z,9.03
2023-03-12T04:39:20.564Z,10.27
2023-03-12T04:41:24.117Z,9.47
2023-03-12T04:43:29.036Z,10.63
2023-03-12T04:45:32.929Z,9.80
2023-03-12T04:47:36.483Z,8.67
2023-03-12T04:49:43.601Z,12.43
2023-03-12T04:51:47.217Z,9.23
2023-03-12T04:53:55.507Z,12.67
2023-03-12T04:56:00.375Z,9.57
2023-03-12T04:58:03.997Z,8.97
2023-03-12T05:00:13.326Z,6.53
2023-03-12T05:02:17.151Z,9.13
2023-03-12T05:04:20.730Z,9.23
2023-03-12T05:08:25.111Z,8.53
2023-03-12T05:10:30.150Z,10.23
2023-03-12T05:12:34.072Z,8.17
2023-03-12T05:14:39.543Z,7.93
2023-03-12T05:16:43.446Z,12.07
2023-03-12T05:18:47.591Z,8.60
2023-03-12T05:21:00.611Z,8.77
2023-03-12T05:23:04.351Z,9.70
2023-03-12T05:25:09.377Z,7.97
2023-03-12T05:27:14.672Z,9.67
2023-03-12T05:29:18.538Z,9.60
2023-03-12T05:31:22.546Z,11.57
2023-03-12T05:33:27.434Z,10.20
2023-03-12T05:35:31.771Z,9.20
2023-03-12T05:37:36.868Z,12.60
2023-03-12T05:39:46.890Z,10.07
2023-03-12T05:41:50.816Z,11.13
2023-03-12T05:43:57.873Z,9.90
2023-03-12T05:46:02.084Z,10.40
2023-03-12T05:48:06.103Z,10.27
2023-03-12T05:50:13.468Z,8.70
2023-03-12T05:52:17.365Z,8.73
2023-03-12T05:54:21.338Z,10.90
2023-03-12T05:56:25.898Z,9.43
2023-03-12T05:58:30.395Z,11.07
2023-03-12T06:00:38.216Z,9.30
2023-03-12T06:02:41.806Z,11.10
2023-03-12T06:04:45.425Z,11.47
2023-03-12T06:07:46.718Z,11.83
2023-03-12T06:09:50.513Z,14.33
2023-03-12T06:11:54.181Z,9.53
2023-03-12T06:13:58.175Z,13.07
2023-03-12T06:16:09.680Z,8.53
2023-03-12T06:18:13.747Z,11.23
2023-03-12T06:20:18.006Z,6.77
2023-03-12T06:22:23.489Z,11.37
2023-03-12T06:24:27.811Z,9.33
2023-03-12T06:26:31.317Z,11.10
2023-03-12T06:28:35.332Z,9.80
2023-03-12T06:30:39.228Z,7.97
2023-03-12T06:32:44.291Z,10.37
2023-03-12T06:34:49.364Z,9.17
2023-03-12T06:36:53.350Z,9.90
2023-03-12T06:38:57.384Z,11.33
2023-03-12T06:41:02.016Z,10.50
2023-03-12T06:43:12.195Z,12.07
2023-03-12T06:45:16.592Z,7.87
2023-03-12T06:47:20.754Z,11.30
2023-03-12T06:49:27.019Z,11.77
2023-03-12T06:51:30.646Z,16.00
2023-03-12T06:53:35.183Z,9.70
2023-03-12T06:55:40.467Z,8.57
2023-03-12T06:57:44.448Z,12.77
2023-03-12T06:59:50.531Z,9.80
2023-03-12T07:01:56.554Z,10.10
2023-03-12T07:04:00.772Z,10.33
2023-03-12T07:06:06.859Z,8.60
2023-03-12T07:08:10.674Z,11.33
2023-03-12T07:14:01.015Z,12.63
2023-03-12T07:16:04.967Z,9.67
2023-03-12T07:18:09.737Z,11.23
2023-03-12T07:20:14.566Z,9.33
2023-03-12T07:24:24.329Z,9.83
2023-03-12T07:26:27.967Z,9.93
2023-03-12T07:28:31.932Z,8.77
2023-03-12T07:30:36.106Z,9.47
2023-03-12T07:32:40.224Z,10.33
2023-03-12T07:34:43.997Z,11.17
2023-03-12T07:36:48.942Z,10.57
2023-03-12T07:38:54.514Z,9.60
2023-03-12T07:40:59.110Z,9.33
2023-03-12T07:43:03.293Z,9.73
2023-03-12T07:48:22.761Z,9.40
2023-03-12T07:50:26.482Z,11.00
2023-03-12T07:52:30.401Z,11.97
2023-03-12T07:54:36.837Z,9.17
2023-03-12T07:56:40.789Z,13.17
2023-03-12T07:58:44.552Z,12.10
2023-03-12T08:00:49.549Z,11.33
2023-03-12T08:02:53.255Z,9.17
2023-03-12T08:04:57.015Z,13.70
2023-03-12T08:07:01.157Z,14.17
2023-03-12T08:09:04.905Z,12.20
2023-03-12T08:11:09.922Z,11.50
2023-03-12T08:13:13.758Z,9.10
2023-03-12T08:15:17.472Z,11.20
2023-03-12T08:17:21.479Z,13.70
2023-03-12T08:19:25.222Z,10.80
2023-03-12T08:21:28.885Z,10.77
2023-03-12T08:23:32.790Z,9.47
2023-03-12T08:25:36.928Z,10.90
2023-03-12T08:27:44.349Z,13.53
2023-03-12T08:29:47.919Z,10.83
2023-03-12T08:32:04.161Z,10.90
2023-03-12T08:34:10.573Z,16.47
2023-03-12T08:36:13.999Z,12.20
2023-03-12T08:38:18.690Z,14.07
2023-03-12T08:40:22.378Z,11.70
2023-03-12T08:42:26.028Z,15.80
2023-03-12T08:45:08.451Z,13.60
2023-03-12T08:47:13.900Z,15.87
2023-03-12T08:49:17.612Z,13.03
2023-03-12T08:51:21.782Z,12.40
2023-03-12T08:53:25.724Z,15.43
2023-03-12T08:56:23.070Z,13.40
2023-03-12T08:58:26.708Z,12.00
2023-03-12T09:00:30.391Z,15.77
2023-03-12T09:02:36.129Z,14.13
2023-03-12T09:04:40.173Z,17.43
2023-03-12T09:06:54.132Z,12.80
2023-03-12T09:08:59.564Z,13.47
2023-03-12T09:11:03.291Z,12.07
2023-03-12T09:13:08.270Z,16.83
2023-03-12T09:15:32.156Z,13.13
2023-03-12T09:17:37.340Z,16.73
2023-03-12T09:19:41.645Z,13.70
2023-03-12T09:21:45.373Z,16.87
2023-03-12T09:23:49.555Z,17.37
2023-03-12T09:25:55.967Z,20.80
2023-03-12T09:28:02.295Z,18.43
2023-03-12T09:30:07.958Z,16.53
2023-03-12T09:32:11.991Z,18.73
2023-03-12T09:35:10.063Z,19.10
2023-03-12T09:37:15.046Z,21.13
2023-03-12T09:39:18.585Z,20.33
2023-03-12T09:41:24.122Z,21.03
2023-03-12T09:43:30.244Z,20.97
2023-03-12T09:45:52.374Z,20.73
2023-03-12T09:47:56.618Z,20.97
2023-03-12T09:50:02.972Z,16.90
2023-03-12T09:52:12.397Z,23.20
2023-03-12T09:54:23.973Z,18.60
2023-03-12T09:56:27.435Z,20.37
2023-03-12T09:58:54.757Z,24.40
2023-03-12T10:01:01.633Z,23.67
2023-03-12T10:03:23.996Z,23.40
2023-03-12T10:05:33.090Z,24.70
2023-03-12T10:07:37.517Z,26.73
2023-03-12T10:13:52.755Z,29.50
2023-03-12T10:16:07.065Z,26.30
2023-03-12T10:18:16.646Z,26.13
2023-03-12T10:21:02.074Z,27.73
2023-03-12T10:23:07.938Z,24.30
2023-03-12T10:25:17.483Z,24.87
2023-03-12T10:27:21.062Z,22.70
2023-03-12T10:29:25.705Z,27.03
2023-03-12T10:31:32.205Z,28.60
2023-03-12T10:33:52.529Z,27.70
2023-03-12T10:35:56.203Z,26.97
2023-03-12T10:38:00.184Z,24.40
2023-03-12T10:40:06.723Z,22.33
2023-03-12T10:42:15.425Z,24.37
2023-03-12T10:46:53.443Z,23.60
2023-03-12T10:49:31.013Z,21.27
2023-03-12T10:51:34.456Z,25.03
2023-03-12T10:53:59.900Z,25.17
2023-03-12T10:56:07.932Z,24.10
2023-03-12T10:58:24.988Z,21.60
2023-03-12T11:00:29.342Z,21.47
2023-03-12T11:02:35.914Z,20.67
2023-03-12T11:04:39.351Z,21.27
2023-03-12T11:06:43.616Z,21.60
2023-03-12T11:08:47.328Z,22.83
2023-03-12T11:10:51.016Z,21.63
2023-03-12T11:12:57.349Z,24.47
2023-03-12T11:15:00.763Z,23.70
2023-03-12T11:17:22.489Z,24.23
2023-03-12T11:19:32.303Z,21.80
2023-03-12T11:21:37.265Z,18.60
2023-03-12T11:23:43.334Z,21.70
2023-03-12T11:25:51.924Z,17.60
2023-03-12T11:27:56.164Z,20.90
2023-03-12T11:29:59.827Z,19.13
2023-03-12T11:32:07.758Z,17.37
2023-03-12T11:34:24.794Z,19.57
2023-03-12T11:36:37.433Z,19.67
2023-03-12T11:38:42.307Z,14.97
2023-03-12T11:40:54.638Z,18.80
2023-03-12T12:15:05.936Z,14.17
2023-03-12T12:17:16.141Z,15.53
2023-03-12T12:19:25.267Z,18.00
2023-03-12T12:21:40.840Z,19.17
2023-03-12T12:23:48.277Z,18.57
2023-03-12T12:25:58.931Z,16.93
2023-03-12T12:28:20.470Z,13.40
2023-03-12T12:30:28.872Z,18.67
2023-03-12T12:32:36.852Z,15.10
2023-03-12T12:35:17.929Z,15.17
2023-03-12T12:37:25.445Z,14.63
2023-03-12T12:39:34.881Z,17.87
2023-03-12T12:41:39.405Z,16.67
2023-03-12T12:43:50.270Z,18.27
2023-03-12T12:46:17.602Z,17.60
2023-03-12T12:48:22.258Z,15.13
2023-03-12T12:50:27.709Z,14.70
2023-03-12T12:52:31.267Z,17.73
2023-03-12T12:54:37.510Z,15.27
2023-03-12T12:56:43.167Z,16.47
2023-03-12T12:59:26.328Z,14.80
2023-03-12T13:01:31.714Z,15.57
2023-03-12T13:03:35.288Z,20.70
2023-03-12T13:05:50.464Z,17.10
2023-03-12T13:07:54.239Z,18.27
2023-03-12T13:09:59.853Z,16.83
2023-03-12T13:12:23.438Z,19.27
2023-03-12T13:14:40.868Z,19.73
2023-03-12T13:16:48.795Z,16.23
2023-03-12T13:18:58.918Z,15.07
2023-03-12T13:21:19.989Z,17.30
2023-03-12T13:23:31.052Z,17.27
2023-03-12T13:26:00.228Z,15.27
2023-03-12T13:28:24.546Z,15.27
2023-03-12T13:30:46.856Z,14.33
2023-03-12T13:33:14.809Z,16.20
2023-03-12T13:35:31.650Z,18.53
2023-03-12T13:38:01.030Z,14.32
2023-03-12T13:40:10.777Z,17.60
2023-03-12T13:42:42.067Z,17.60
2023-03-12T13:44:45.814Z,16.48
2023-03-12T13:46:50.981Z,14.90
2023-03-12T13:48:57.929Z,15.77
2023-03-12T13:51:02.971Z,15.65
2023-03-12T13:53:07.451Z,16.85
2023-03-12T13:55:22.925Z,14.52
2023-03-12T13:57:31.678Z,18.37
2023-03-12T13:59:35.264Z,14.50
2023-03-12T14:01:44.414Z,17.13
2023-03-12T14:03:49.911Z,16.03
2023-03-12T14:06:36.364Z,16.05
2023-03-12T14:08:59.473Z,16.63
2023-03-12T14:11:09.694Z,15.18
2023-03-12T14:13:24.966Z,16.97
2023-03-12T14:15:31.203Z,16.00
2023-03-12T14:17:35.240Z,15.53
2023-03-12T14:19:46.392Z,14.35
2023-03-12T14:21:50.995Z,14.63
2023-03-12T14:23:57.210Z,16.30
2023-03-12T14:26:03.922Z,19.15
2023-03-12T14:28:17.380Z,15.63
2023-03-12T14:30:23.498Z,14.05
2023-03-12T14:32:29.688Z,14.02
2023-03-12T14:34:35.211Z,14.52
2023-03-12T14:36:40.366Z,14.77
2023-03-12T14:38:45.230Z,15.77
2023-03-12T14:40:52.307Z,14.07
2023-03-12T14:44:09.618Z,13.68
2023-03-12T14:46:19.107Z,15.45
2023-03-12T14:48:23.964Z,15.13
2023-03-12T14:50:28.616Z,18.42
2023-03-12T14:53:12.048Z,18.48
2023-03-12T14:55:18.494Z,14.30
2023-03-12T14:57:24.825Z,16.23
2023-03-12T14:59:31.376Z,14.48
2023-03-12T15:01:39.800Z,14.32
2023-03-12T15:03:44.504Z,16.17
2023-03-12T15:05:50.332Z,14.35
2023-03-12T15:07:54.484Z,15.73
2023-03-12T15:09:58.242Z,15.25
2023-03-12T15:12:50.770Z,15.93
2023-03-12T15:15:00.933Z,16.98
2023-03-12T15:17:05.225Z,16.30
2023-03-12T15:19:10.733Z,18.65
2023-03-12T15:21:14.539Z,15.20
2023-03-12T15:23:18.574Z,14.73
2023-03-12T15:25:38.604Z,14.68
2023-03-12T15:27:44.220Z,13.55
2023-03-12T15:29:47.697Z,15.07
2023-03-12T15:31:56.703Z,14.10
2023-03-12T15:34:04.207Z,15.80
2023-03-12T15:36:17.679Z,14.55
2023-03-12T15:38:24.409Z,18.67
2023-03-12T15:40:28.670Z,13.90
2023-03-12T15:42:35.834Z,15.02
2023-03-12T15:44:45.772Z,15.55
2023-03-12T15:46:49.789Z,14.45
2023-03-12T15:48:54.187Z,14.40
2023-03-12T15:50:57.679Z,13.18
2023-03-12T15:53:26.738Z,14.27
2023-03-12T15:55:30.858Z,14.77
2023-03-12T15:57:35.304Z,15.18
2023-03-12T15:59:40.310Z,13.90
2023-03-12T16:01:47.632Z,14.43
2023-03-12T16:03:51.621Z,13.55
2023-03-12T16:05:55.642Z,14.02
2023-03-12T16:07:59.450Z,12.85
2023-03-12T16:10:02.921Z,13.23
2023-03-12T16:12:07.052Z,14.15
2023-03-12T16:14:18.002Z,13.38
2023-03-12T16:16:22.960Z,12.85
2023-03-12T16:18:26.594Z,12.25
2023-03-12T16:20:30.523Z,15.00
2023-03-12T16:22:33.963Z,16.17
2023-03-12T16:24:37.782Z,12.65
2023-03-12T16:26:46.461Z,15.02
2023-03-12T16:28:50.598Z,12.68
2023-03-12T16:30:54.141Z,13.45
2023-03-12T16:33:26.560Z,12.43
2023-03-12T16:35:31.544Z,13.77
2023-03-12T16:37:35.273Z,16.80
2023-03-12T16:39:38.784Z,14.15
2023-03-12T16:42:01.800Z,15.55
2023-03-12T16:44:05.729Z,16.42
2023-03-12T16:46:09.903Z,16.80
2023-03-12T16:48:15.993Z,18.17
2023-03-12T16:50:23.693Z,16.88
2023-03-12T16:52:28.130Z,14.65
2023-03-12T16:54:31.916Z,13.98
2023-03-12T16:56:35.536Z,16.70
2023-03-12T16:58:39.425Z,14.10
2023-03-12T17:00:43.237Z,16.85
2023-03-12T17:02:46.851Z,15.18
2023-03-12T17:04:51.282Z,13.77
2023-03-12T17:06:56.643Z,15.63
2023-03-12T17:09:56.561Z,14.90
2023-03-12T17:12:01.240Z,15.15
2023-03-12T17:14:06.622Z,14.05
2023-03-12T17:16:12.454Z,15.25
2023-03-12T17:18:16.252Z,15.20
2023-03-12T17:20:21.246Z,12.82
2023-03-12T17:22:26.887Z,14.38
2023-03-12T17:24:30.778Z,16.20
2023-03-12T17:26:35.383Z,14.07
2023-03-12T17:28:39.244Z,14.82
2023-03-12T17:30:44.122Z,14.98
2023-03-12T17:32:48.038Z,15.15
2023-03-12T17:37:14.630Z,14.63
2023-03-12T17:39:19.672Z,14.02
2023-03-12T17:41:26.857Z,12.50
2023-03-12T17:43:31.055Z,13.50
2023-03-12T17:45:34.583Z,14.38
2023-03-12T17:47:38.592Z,16.27
2023-03-12T17:49:50.308Z,18.48
2023-03-12T17:52:59.544Z,14.60
2023-03-12T17:55:06.716Z,16.02
2023-03-12T17:57:10.499Z,13.50
2023-03-12T17:59:14.059Z,16.00
2023-03-12T18:01:17.859Z,14.50
2023-03-12T18:03:21.675Z,16.30
2023-03-12T18:05:25.394Z,18.50
2023-03-12T18:07:29.150Z,19.20
2023-03-12T18:09:32.714Z,15.88
2023-03-12T18:11:37.412Z,18.10
2023-03-12T18:13:41.733Z,15.05
2023-03-12T18:15:48.800Z,18.85
2023-03-12T18:18:07.874Z,17.38
2023-03-12T18:20:17.905Z,14.00
2023-03-12T18:22:24.573Z,15.60
2023-03-12T18:24:28.218Z,17.85
2023-03-12T18:26:31.638Z,15.13
2023-03-12T18:29:14.147Z,16.50
2023-03-12T18:31:19.034Z,15.55
2023-03-12T18:33:30.965Z,18.75
2023-03-12T18:35:35.248Z,16.35
2023-03-12T18:37:59.237Z,13.88
2023-03-12T18:40:02.887Z,18.00
2023-03-12T18:42:06.642Z,18.65
2023-03-12T18:44:10.206Z,16.30
2023-03-12T18:46:14.523Z,15.77
2023-03-12T18:48:19.452Z,17.45
2023-03-12T18:50:22.984Z,16.38
2023-03-12T18:52:41.740Z,15.45
2023-03-12T18:54:45.192Z,15.55
2023-03-12T18:56:48.794Z,16.83
2023-03-12T18:58:52.123Z,14.77
2023-03-12T19:00:55.729Z,20.33
2023-03-12T19:02:59.600Z,16.02
2023-03-12T19:05:05.644Z,14.27
2023-03-12T19:07:09.092Z,15.43
2023-03-12T19:09:12.515Z,17.40
2023-03-12T19:11:16.774Z,18.25
2023-03-12T19:13:34.753Z,14.57
2023-03-12T19:15:38.470Z,15.07
2023-03-12T19:17:42.788Z,17.75
2023-03-12T19:19:46.093Z,17.30
2023-03-12T19:21:50.850Z,16.45
2023-03-12T19:23:55.182Z,17.38
2023-03-12T19:26:05.113Z,17.10
2023-03-12T19:28:08.834Z,18.35
2023-03-12T19:30:14.007Z,14.52
2023-03-12T19:32:17.652Z,15.73
2023-03-12T19:34:22.050Z,15.68
2023-03-12T19:36:31.404Z,19.98
2023-03-12T19:38:36.507Z,19.05
2023-03-12T19:40:40.054Z,13.38
2023-03-12T19:43:01.501Z,16.10
2023-03-12T19:45:05.523Z,14.82
2023-03-12T19:47:08.872Z,14.50
2023-03-12T19:49:12.521Z,17.15
2023-03-12T19:51:16.190Z,19.10
2023-03-12T19:53:20.223Z,20.50
2023-03-12T19:55:24.981Z,17.42
2023-03-12T19:57:28.965Z,13.70
2023-03-12T19:59:32.415Z,11.50
2023-03-12T20:01:36.235Z,18.80
2023-03-12T20:03:43.734Z,17.52
2023-03-12T20:05:47.434Z,19.00
2023-03-12T20:07:52.617Z,18.50
2023-03-12T20:09:56.522Z,14.63
2023-03-12T20:12:01.514Z,17.55
2023-03-12T20:14:06.161Z,18.15
2023-03-12T20:16:12.633Z,19.23
2023-03-12T20:18:19.369Z,15.68
2023-03-12T20:20:22.980Z,15.63
2023-03-12T20:22:26.843Z,18.00
2023-03-12T20:24:30.607Z,18.27
2023-03-12T20:26:34.194Z,18.73
2023-03-12T20:28:39.111Z,18.05
2023-03-12T20:30:42.748Z,19.48
2023-03-12T20:32:46.324Z,19.98
2023-03-12T20:35:00.392Z,17.83
2023-03-12T20:37:04.134Z,18.73
2023-03-12T20:39:07.750Z,20.67
2023-03-12T20:41:14.503Z,13.80
2023-03-12T20:45:37.902Z,20.98
2023-03-12T20:47:41.478Z,19.67
2023-03-12T20:49:44.950Z,21.75
2023-03-12T20:51:49.518Z,21.40
2023-03-12T20:53:52.963Z,16.67
2023-03-12T20:55:56.449Z,14.40
2023-03-12T20:58:00.133Z,18.90
2023-03-12T21:06:50.492Z,16.50
2023-03-12T21:08:55.894Z,17.30
2023-03-12T21:11:12.593Z,19.65
2023-03-12T21:13:16.159Z,14.77
2023-03-12T21:15:19.668Z,16.42
2023-03-12T21:17:23.132Z,17.55
2023-03-12T21:19:28.792Z,16.92
2023-03-12T21:21:35.277Z,18.70
2023-03-12T21:23:40.131Z,17.35
2023-03-12T21:25:43.600Z,17.25
2023-03-12T21:27:50.903Z,20.38
2023-03-12T21:30:03.840Z,16.65
2023-03-12T21:32:07.555Z,18.75
2023-03-12T21:34:10.886Z,20.80
2023-03-12T21:36:15.151Z,19.85
2023-03-12T21:38:18.608Z,17.67
2023-03-12T21:40:23.423Z,19.40
2023-03-12T21:42:28.332Z,19.27
2023-03-12T21:44:31.816Z,18.25
2023-03-12T21:46:36.945Z,16.02
2023-03-12T21:48:40.622Z,16.67
2023-03-12T21:50:44.193Z,16.60
2023-03-12T21:52:50.998Z,17.88
2023-03-12T21:54:54.544Z,17.17
2023-03-12T21:57:25.370Z,18.98
2023-03-12T21:59:29.001Z,16.92
2023-03-12T22:01:32.712Z,14.18
2023-03-12T22:03:36.549Z,12.80
2023-03-12T22:05:39.998Z,19.10
2023-03-12T22:07:43.460Z,17.50
2023-03-12T22:09:47.235Z,16.25
2023-03-12T22:11:50.714Z,16.30
2023-03-12T22:14:07.242Z,13.73
2023-03-12T22:16:10.876Z,16.88
2023-03-12T22:18:14.591Z,16.30
2023-03-12T22:20:18.075Z,18.73
2023-03-12T22:22:22.151Z,16.55
2023-03-12T22:24:28.203Z,14.52
2023-03-12T22:26:32.466Z,20.52
2023-03-12T22:28:36.386Z,17.20
2023-03-12T22:31:01.789Z,17.67
2023-03-12T22:33:05.354Z,15.75
2023-03-12T22:35:09.461Z,18.65
2023-03-12T22:37:12.750Z,18.02
2023-03-12T22:39:17.276Z,12.45
2023-03-12T22:41:21.596Z,21.08
2023-03-12T22:43:26.920Z,15.50
2023-03-12T22:45:30.476Z,15.43
2023-03-12T22:47:35.403Z,14.48
2023-03-12T22:49:38.874Z,12.35
2023-03-12T22:51:42.236Z,14.75
2023-03-12T22:53:51.246Z,19.38
2023-03-12T22:55:58.993Z,15.90
2023-03-12T22:58:02.340Z,18.23
2023-03-12T23:00:09.307Z,13.05
2023-03-12T23:02:12.680Z,19.17
2023-03-12T23:04:41.260Z,14.13
2023-03-12T23:06:45.178Z,15.68
2023-03-12T23:08:48.694Z,12.52
2023-03-12T23:10:53.498Z,16.65
2023-03-12T23:12:56.922Z,15.27
2023-03-12T23:15:00.168Z,17.92
2023-03-12T23:17:03.545Z,14.48
2023-03-12T23:19:07.354Z,15.43
2023-03-12T23:21:16.346Z,14.35
2023-03-12T23:23:19.797Z,13.13
2023-03-12T23:25:28.454Z,18.38
2023-03-12T23:27:31.853Z,16.20
2023-03-12T23:29:35.269Z,19.13
2023-03-12T23:31:38.815Z,16.52
2023-03-12T23:33:42.155Z,12.73
2023-03-12T23:39:22.757Z,16.40
2023-03-12T23:41:29.415Z,13.27
2023-03-12T23:43:32.763Z,15.23
2023-03-12T23:45:36.316Z,14.18
2023-03-12T23:47:39.775Z,14.43
2023-03-12T23:49:43.264Z,14.85
2023-03-12T23:55:11.755Z,19.77
2023-03-12T23:57:16.826Z,13.52
2023-03-12T23:59:20.329Z,13.57
